createdAt,value
2019-02-18T00:01:18.163Z,3.00
2019-02-18T00:03:48.710Z,3.00
2019-02-18T00:06:19.172Z,2.90
2019-02-18T00:08:49.753Z,2.90
2019-02-18T00:11:21.639Z,2.90
2019-02-18T00:13:52.138Z,2.80
2019-02-18T00:16:22.532Z,2.90
2019-02-18T00:18:52.968Z,2.80
2019-02-18T00:21:23.416Z,2.90
2019-02-18T00:23:53.808Z,2.90
2019-02-18T00:26:24.288Z,2.80
2019-02-18T00:28:54.701Z,2.80
2019-02-18T00:31:25.168Z,2.70
2019-02-18T00:33:55.774Z,2.70
2019-02-18T00:36:26.170Z,2.70
2019-02-18T00:38:56.610Z,2.70
2019-02-18T00:41:27.100Z,2.70
2019-02-18T00:43:57.608Z,2.70
2019-02-18T00:46:32.347Z,2.60
2019-02-18T00:49:02.916Z,2.50
2019-02-18T00:51:34.864Z,2.50
2019-02-18T00:54:05.332Z,2.50
2019-02-18T00:56:35.823Z,2.50
2019-02-18T00:59:06.311Z,2.40
2019-02-18T01:01:36.735Z,2.40
2019-02-18T01:04:09.063Z,2.40
2019-02-18T01:06:44.062Z,2.40
2019-02-18T01:09:16.049Z,2.40
2019-02-18T01:11:46.506Z,2.30
2019-02-18T01:14:16.939Z,2.30
2019-02-18T01:16:47.429Z,2.30
2019-02-18T01:19:17.843Z,2.30
2019-02-18T01:21:48.334Z,2.30
2019-02-18T01:24:18.865Z,2.20
2019-02-18T01:26:50.151Z,2.30
2019-02-18T01:29:20.569Z,2.20
2019-02-18T01:31:51.100Z,2.20
2019-02-18T01:34:21.555Z,2.20
2019-02-18T01:36:52.116Z,2.20
2019-02-18T01:39:22.550Z,2.20
2019-02-18T01:41:53.076Z,2.20
2019-02-18T01:44:23.618Z,2.20
2019-02-18T01:46:54.335Z,2.10
2019-02-18T01:49:26.355Z,2.10
2019-02-18T01:51:56.779Z,2.10
2019-02-18T01:54:27.665Z,2.10
2019-02-18T01:56:58.186Z,2.10
2019-02-18T01:59:28.618Z,2.00
2019-02-18T02:01:59.277Z,2.10
2019-02-18T02:04:29.713Z,2.00
2019-02-18T02:07:03.122Z,2.00
2019-02-18T02:09:34.864Z,2.00
2019-02-18T02:12:05.313Z,2.00
2019-02-18T02:14:35.891Z,2.00
2019-02-18T02:17:06.537Z,1.90
2019-02-18T02:19:37.102Z,2.00
2019-02-18T02:22:07.632Z,1.90
2019-02-18T02:24:38.038Z,1.90
2019-02-18T02:27:08.516Z,1.90
2019-02-18T02:29:39.045Z,1.90
2019-02-18T02:32:09.493Z,1.90
2019-02-18T02:34:39.849Z,1.80
2019-02-18T02:37:10.357Z,1.80
2019-02-18T02:39:40.798Z,1.80
2019-02-18T02:42:11.236Z,1.80
2019-02-18T02:44:41.781Z,1.80
2019-02-18T02:47:12.187Z,1.80
2019-02-18T02:49:42.641Z,1.80
2019-02-18T02:52:13.070Z,1.80
2019-02-18T02:54:43.468Z,1.80
2019-02-18T02:57:13.902Z,1.70
2019-02-18T02:59:44.382Z,1.70
2019-02-18T03:02:14.871Z,1.70
2019-02-18T03:04:46.770Z,1.70
2019-02-18T03:07:17.355Z,1.70
2019-02-18T03:09:47.899Z,1.60
2019-02-18T03:12:18.466Z,1.60
2019-02-18T03:14:48.994Z,1.60
2019-02-18T03:17:19.490Z,1.60
2019-02-18T03:19:49.924Z,1.50
2019-02-18T03:22:20.432Z,1.50
2019-02-18T03:25:19.235Z,1.50
2019-02-18T03:27:52.891Z,1.60
2019-02-18T03:30:47.221Z,1.60
2019-02-18T03:33:20.612Z,1.60
2019-02-18T03:35:51.147Z,1.50
2019-02-18T03:38:31.163Z,1.50
2019-02-18T03:41:02.840Z,1.50
2019-02-18T03:43:25.798Z,1.40
2019-02-18T03:45:56.263Z,1.40
2019-02-18T03:48:26.698Z,1.40
2019-02-18T03:50:57.258Z,1.40
2019-02-18T03:53:27.929Z,1.50
2019-02-18T03:55:58.373Z,1.40
2019-02-18T03:58:28.812Z,1.40
2019-02-18T04:00:59.224Z,1.40
2019-02-18T04:03:29.862Z,1.50
2019-02-18T04:06:00.457Z,1.40
2019-02-18T04:08:42.959Z,1.30
2019-02-18T04:11:12.071Z,1.30
2019-02-18T04:13:42.674Z,1.30
2019-02-18T04:16:14.140Z,1.30
2019-02-18T04:18:44.501Z,1.30
2019-02-18T04:21:14.923Z,1.30
2019-02-18T04:23:45.402Z,1.30
2019-02-18T04:26:15.827Z,1.30
2019-02-18T04:28:46.310Z,1.30
2019-02-18T04:31:16.791Z,1.20
2019-02-18T04:33:47.318Z,1.30
2019-02-18T04:36:17.738Z,1.20
2019-02-18T04:38:54.014Z,1.20
2019-02-18T04:41:23.275Z,1.20
2019-02-18T04:43:58.749Z,1.20
2019-02-18T04:46:30.782Z,1.10
2019-02-18T04:49:29.466Z,1.20
2019-02-18T04:52:00.958Z,1.20
2019-02-18T04:54:31.980Z,1.20
2019-02-18T04:57:02.484Z,1.20
2019-02-18T04:59:33.102Z,1.20
2019-02-18T05:02:03.629Z,1.30
2019-02-18T05:04:34.227Z,1.30
2019-02-18T05:07:06.420Z,1.40
2019-02-18T05:09:39.940Z,1.40
2019-02-18T05:12:10.678Z,1.50
2019-02-18T05:14:41.152Z,1.50
2019-02-18T05:17:11.576Z,1.60
2019-02-18T05:19:42.212Z,1.60
2019-02-18T05:22:12.673Z,1.70
2019-02-18T05:24:44.721Z,1.70
2019-02-18T05:27:15.304Z,1.70
2019-02-18T05:29:45.783Z,1.80
2019-02-18T05:32:16.405Z,1.80
2019-02-18T05:34:47.862Z,1.80
2019-02-18T05:37:20.107Z,1.90
2019-02-18T05:39:50.570Z,2.00
2019-02-18T05:42:21.030Z,2.10
2019-02-18T05:44:52.840Z,2.10
2019-02-18T05:47:23.273Z,2.20
2019-02-18T05:49:53.785Z,2.20
2019-02-18T05:52:25.374Z,2.20
2019-02-18T05:54:55.779Z,2.20
2019-02-18T05:57:27.703Z,2.20
2019-02-18T05:59:58.128Z,2.20
2019-02-18T06:02:28.513Z,2.20
2019-02-18T06:04:59.001Z,2.30
2019-02-18T06:07:29.431Z,2.30
2019-02-18T06:09:59.931Z,2.40
2019-02-18T06:12:30.451Z,2.40
2019-02-18T06:15:00.851Z,2.40
2019-02-18T06:17:31.913Z,2.40
2019-02-18T06:20:08.337Z,2.30
2019-02-18T06:22:40.404Z,2.40
2019-02-18T06:25:10.806Z,2.30
2019-02-18T06:27:41.218Z,2.30
2019-02-18T06:30:16.033Z,2.40
2019-02-18T06:32:46.904Z,2.40
2019-02-18T06:35:19.074Z,2.40
2019-02-18T06:37:49.936Z,2.50
2019-02-18T06:40:21.153Z,2.40
2019-02-18T06:42:51.699Z,2.40
2019-02-18T06:45:38.809Z,2.50
2019-02-18T06:48:23.662Z,2.50
2019-02-18T06:50:54.175Z,2.40
2019-02-18T06:53:24.530Z,2.60
2019-02-18T06:55:56.569Z,2.70
2019-02-18T06:58:34.234Z,2.80
2019-02-18T07:01:21.601Z,2.70
2019-02-18T07:04:05.632Z,2.60
2019-02-18T07:06:37.647Z,2.60
2019-02-18T07:09:21.641Z,2.60
2019-02-18T07:11:56.638Z,2.70
2019-02-18T07:14:27.248Z,2.70
2019-02-18T07:16:59.367Z,2.70
2019-02-18T07:19:30.353Z,2.70
2019-02-18T07:22:00.857Z,2.70
2019-02-18T07:24:31.288Z,2.60
2019-02-18T07:27:02.400Z,2.60
2019-02-18T07:29:34.155Z,2.60
2019-02-18T07:32:04.791Z,2.50
2019-02-18T07:34:35.388Z,2.50
2019-02-18T07:37:06.586Z,2.50
2019-02-18T07:39:36.992Z,2.70
2019-02-18T07:42:07.472Z,2.70
2019-02-18T07:44:37.899Z,2.60
2019-02-18T07:47:09.430Z,2.60
2019-02-18T07:49:39.805Z,2.60
2019-02-18T07:52:10.237Z,2.70
2019-02-18T07:54:41.268Z,2.60
2019-02-18T07:57:11.878Z,2.70
2019-02-18T07:59:42.861Z,2.80
2019-02-18T08:02:13.449Z,2.80
2019-02-18T08:04:43.893Z,2.80
2019-02-18T08:07:14.324Z,2.70
2019-02-18T08:09:44.869Z,2.80
2019-02-18T08:12:15.207Z,2.80
2019-02-18T08:14:48.117Z,2.80
2019-02-18T08:17:18.595Z,2.80
2019-02-18T08:19:49.024Z,2.80
2019-02-18T08:22:19.471Z,2.80
2019-02-18T08:24:50.186Z,2.90
2019-02-18T08:27:20.629Z,2.90
2019-02-18T08:29:51.084Z,3.00
2019-02-18T08:32:21.452Z,3.20
2019-02-18T08:34:52.428Z,3.30
2019-02-18T08:37:22.865Z,3.30
2019-02-18T08:39:54.482Z,3.30
2019-02-18T08:42:24.882Z,3.20
2019-02-18T08:44:55.400Z,3.20
2019-02-18T08:47:25.826Z,3.10
2019-02-18T08:49:56.334Z,3.10
2019-02-18T08:52:26.747Z,3.10
2019-02-18T08:54:57.183Z,3.10
2019-02-18T08:57:27.576Z,3.10
2019-02-18T08:59:58.041Z,3.20
2019-02-18T09:02:28.484Z,3.30
2019-02-18T09:04:59.042Z,3.40
2019-02-18T09:07:32.250Z,3.50
2019-02-18T09:10:02.824Z,3.40
2019-02-18T09:12:41.106Z,3.40
2019-02-18T09:15:14.316Z,3.20
2019-02-18T09:17:44.345Z,3.30
2019-02-18T09:20:14.809Z,3.40
2019-02-18T09:22:49.810Z,3.40
2019-02-18T09:25:21.942Z,3.50
2019-02-18T09:27:52.418Z,3.60
2019-02-18T09:30:24.394Z,3.60
2019-02-18T09:32:54.804Z,3.70
2019-02-18T09:35:25.299Z,3.80
2019-02-18T09:37:55.695Z,3.80
2019-02-18T09:40:26.186Z,3.60
2019-02-18T09:42:56.582Z,3.40
2019-02-18T09:45:27.902Z,3.60
2019-02-18T09:47:58.349Z,3.60
2019-02-18T09:50:28.797Z,3.70
2019-02-18T09:52:59.223Z,3.60
2019-02-18T09:55:29.701Z,3.70
2019-02-18T09:58:00.159Z,3.90
2019-02-18T10:00:30.529Z,4.10
2019-02-18T10:03:02.059Z,3.90
2019-02-18T10:05:32.422Z,3.80
2019-02-18T10:08:02.960Z,4.00
2019-02-18T10:10:33.458Z,4.00
2019-02-18T10:13:03.956Z,4.10
2019-02-18T10:15:34.517Z,4.10
2019-02-18T10:18:04.919Z,4.00
2019-02-18T10:20:35.262Z,3.90
2019-02-18T10:23:05.756Z,4.00
2019-02-18T10:25:36.186Z,3.90
2019-02-18T10:28:06.602Z,3.80
2019-02-18T10:30:37.249Z,4.00
2019-02-18T10:33:08.046Z,3.90
2019-02-18T10:35:38.536Z,4.10
2019-02-18T10:38:09.017Z,4.20
2019-02-18T10:40:39.589Z,4.00
2019-02-18T10:43:10.118Z,4.30
2019-02-18T10:45:40.602Z,4.50
2019-02-18T10:48:15.552Z,4.10
2019-02-18T10:50:46.186Z,3.90
2019-02-18T10:53:17.915Z,4.00
2019-02-18T10:55:48.400Z,4.00
2019-02-18T10:58:18.953Z,4.00
2019-02-18T11:00:49.460Z,3.90
2019-02-18T11:03:21.976Z,4.00
2019-02-18T11:05:52.454Z,4.10
2019-02-18T11:08:24.559Z,4.00
2019-02-18T11:10:54.997Z,4.00
2019-02-18T11:13:25.417Z,3.90
2019-02-18T11:15:56.054Z,4.00
2019-02-18T11:18:26.551Z,4.00
2019-02-18T11:20:56.954Z,4.00
2019-02-18T11:23:27.965Z,4.10
2019-02-18T11:25:58.365Z,4.20
2019-02-18T11:28:32.659Z,4.40
2019-02-18T11:31:03.180Z,4.40
2019-02-18T11:33:35.937Z,4.50
2019-02-18T11:36:06.468Z,4.50
2019-02-18T11:38:37.040Z,4.50
2019-02-18T11:41:07.445Z,4.40
2019-02-18T11:43:37.874Z,4.20
2019-02-18T11:46:08.304Z,4.30
2019-02-18T11:48:39.113Z,4.30
2019-02-18T11:51:09.842Z,4.30
2019-02-18T11:53:43.070Z,4.50
2019-02-18T11:56:15.871Z,4.60
2019-02-18T11:58:46.656Z,5.00
2019-02-18T12:01:17.325Z,5.30
2019-02-18T12:03:48.087Z,5.10
2019-02-18T12:06:18.600Z,4.80
2019-02-18T12:08:49.108Z,5.00
2019-02-18T12:11:19.547Z,4.90
2019-02-18T12:13:50.844Z,4.60
2019-02-18T12:16:22.914Z,4.70
2019-02-18T12:18:53.952Z,4.70
2019-02-18T12:21:24.548Z,4.50
2019-02-18T12:23:56.860Z,4.40
2019-02-18T12:26:27.112Z,4.20
2019-02-18T12:28:58.765Z,4.10
2019-02-18T12:31:29.332Z,3.90
2019-02-18T12:33:59.958Z,3.90
2019-02-18T12:36:30.543Z,4.00
2019-02-18T12:39:00.922Z,4.00
2019-02-18T12:41:31.793Z,4.00
2019-02-18T12:44:02.446Z,4.10
2019-02-18T12:46:32.930Z,4.20
2019-02-18T12:49:03.409Z,4.20
2019-02-18T12:51:33.876Z,4.20
2019-02-18T12:54:10.918Z,4.10
2019-02-18T13:17:09.717Z,4.10
2019-02-18T13:19:48.803Z,4.20
2019-02-18T14:43:28.329Z,3.10
2019-02-18T14:45:59.826Z,3.10
2019-02-18T14:48:30.704Z,3.00
2019-02-18T14:51:01.168Z,3.00
2019-02-18T14:53:31.726Z,3.00
2019-02-18T14:56:02.176Z,2.90
2019-02-18T14:58:33.094Z,2.90
2019-02-18T15:01:12.296Z,2.80
2019-02-18T15:03:42.863Z,2.80
2019-02-18T15:06:13.363Z,2.70
2019-02-18T15:08:43.880Z,2.70
2019-02-18T15:11:14.447Z,2.60
2019-02-18T15:13:45.005Z,2.50
2019-02-18T15:16:15.538Z,2.50
2019-02-18T15:18:46.810Z,2.50
2019-02-18T15:21:17.227Z,2.40
2019-02-18T15:23:48.166Z,2.30
2019-02-18T15:26:20.245Z,2.30
2019-02-18T15:28:50.900Z,2.30
2019-02-18T15:31:21.331Z,2.20
2019-02-18T15:33:52.067Z,2.20
2019-02-18T15:36:22.514Z,2.20
2019-02-18T15:38:53.007Z,2.20
2019-02-18T15:41:23.442Z,2.20
2019-02-18T15:43:53.855Z,2.20
2019-02-18T15:46:27.154Z,2.20
2019-02-18T15:48:57.566Z,2.10
2019-02-18T15:51:29.454Z,2.10
2019-02-18T15:54:12.553Z,2.10
2019-02-18T15:56:43.395Z,2.10
2019-02-18T15:59:14.340Z,2.00
2019-02-18T16:01:44.969Z,2.00
2019-02-18T16:04:16.737Z,2.00
2019-02-18T16:06:47.317Z,1.90
2019-02-18T16:09:17.752Z,1.90
2019-02-18T16:11:48.222Z,1.90
2019-02-18T16:14:19.202Z,1.90
2019-02-18T16:16:54.174Z,1.80
2019-02-18T16:19:29.134Z,1.80
2019-02-18T16:22:01.184Z,1.70
2019-02-18T16:24:35.017Z,1.60
2019-02-18T16:27:05.615Z,1.60
2019-02-18T16:29:38.995Z,1.60
2019-02-18T16:32:11.289Z,1.60
2019-02-18T16:34:44.618Z,1.60
2019-02-18T16:37:16.126Z,1.60
2019-02-18T16:39:46.709Z,1.60
2019-02-18T16:42:17.265Z,1.60
2019-02-18T16:44:47.849Z,1.60
2019-02-18T16:47:18.570Z,1.50
2019-02-18T16:49:49.642Z,1.50
2019-02-18T16:52:32.428Z,1.60
2019-02-18T16:55:23.101Z,1.40
2019-02-18T16:57:55.936Z,1.40
2019-02-18T17:00:40.389Z,1.40
2019-02-18T17:03:06.784Z,1.40
2019-02-18T17:05:38.815Z,1.40
2019-02-18T17:08:09.444Z,1.30
2019-02-18T17:10:40.216Z,1.30
2019-02-18T17:13:14.559Z,1.30
2019-02-18T17:15:57.528Z,1.20
2019-02-18T17:18:37.846Z,1.10
2019-02-18T17:21:11.299Z,1.10
2019-02-18T17:23:41.934Z,1.10
2019-02-18T17:26:12.602Z,1.20
2019-02-18T17:28:44.348Z,1.20
2019-02-18T17:31:15.896Z,1.20
2019-02-18T17:33:47.519Z,1.10
2019-02-18T17:36:18.212Z,1.10
2019-02-18T17:38:49.490Z,1.10
2019-02-18T17:41:20.137Z,1.10
2019-02-18T17:43:51.228Z,1.10
2019-02-18T17:46:27.587Z,1.10
2019-02-18T17:49:05.745Z,1.10
2019-02-18T17:51:39.109Z,1.10
2019-02-18T17:54:09.694Z,1.10
2019-02-18T17:56:43.064Z,1.00
2019-02-18T17:59:13.899Z,1.00
2019-02-18T18:01:44.623Z,1.00
2019-02-18T18:04:15.162Z,0.90
2019-02-18T18:06:45.835Z,0.90
2019-02-18T18:09:16.576Z,0.80
2019-02-18T18:11:47.319Z,0.90
2019-02-18T18:14:17.967Z,0.80
2019-02-18T18:16:50.788Z,0.80
2019-02-18T18:19:21.363Z,0.80
2019-02-18T18:21:52.622Z,0.80
2019-02-18T18:24:24.129Z,0.80
2019-02-18T18:26:54.654Z,0.80
2019-02-18T18:29:25.186Z,0.80
2019-02-18T18:31:57.538Z,0.80
2019-02-18T18:34:31.229Z,0.80
2019-02-18T18:37:05.795Z,0.70
2019-02-18T18:39:43.184Z,0.70
2019-02-18T18:54:19.066Z,0.50
2019-02-18T18:56:50.726Z,0.40
2019-02-18T19:02:10.334Z,0.40
2019-02-18T19:04:42.153Z,0.30
2019-02-18T19:07:13.947Z,0.30
2019-02-18T19:09:44.465Z,0.30
2019-02-18T19:12:16.932Z,0.30
2019-02-18T19:14:47.555Z,0.30
2019-02-18T19:17:19.707Z,0.30
2019-02-18T19:19:57.527Z,0.20
2019-02-18T19:22:22.524Z,0.30
2019-02-18T19:24:55.524Z,0.30
2019-02-18T19:27:38.964Z,0.30
2019-02-18T19:30:18.336Z,0.30
2019-02-18T19:32:50.036Z,0.30
2019-02-18T19:35:20.634Z,0.30
2019-02-18T19:37:51.464Z,0.20
2019-02-18T19:40:22.001Z,0.20
2019-02-18T19:42:54.913Z,0.20
2019-02-18T19:45:26.586Z,0.20
2019-02-18T19:47:57.315Z,0.30
2019-02-18T19:50:31.347Z,0.40
2019-02-18T19:53:02.016Z,0.30
2019-02-18T19:55:39.739Z,0.20
2019-02-18T19:58:22.751Z,0.20
2019-02-18T20:00:53.275Z,0.30
2019-02-18T20:03:27.598Z,0.30
2019-02-18T20:06:01.509Z,0.20
2019-02-18T20:08:33.544Z,0.10
2019-02-18T20:11:11.498Z,0.20
2019-02-18T20:13:44.570Z,0.20
2019-02-18T20:16:16.466Z,0.20
2019-02-18T20:18:51.943Z,0.20
2019-02-18T20:21:32.479Z,0.10
2019-02-18T20:24:05.148Z,0.10
2019-02-18T20:26:42.094Z,0.10
2019-02-18T20:29:11.777Z,0.10
2019-02-18T20:31:42.545Z,0.00
2019-02-18T20:34:13.329Z,0.00
2019-02-18T20:36:57.158Z,0.00
2019-02-18T20:39:27.979Z,0.00
2019-02-18T20:41:58.535Z,-0.10
2019-02-18T20:44:29.476Z,-0.10
2019-02-18T20:47:02.105Z,0.00
2019-02-18T20:49:36.508Z,-0.10
2019-02-18T20:52:08.342Z,-0.10
2019-02-18T20:54:38.860Z,0.00
2019-02-18T20:57:09.537Z,0.00
2019-02-18T20:59:41.879Z,0.00
2019-02-18T21:02:14.163Z,0.00
2019-02-18T21:05:01.756Z,-0.10
2019-02-18T21:07:41.914Z,-0.20
2019-02-18T21:10:25.296Z,-0.30
2019-02-18T21:13:04.050Z,-0.30
2019-02-18T21:15:34.771Z,-0.30
2019-02-18T21:18:09.959Z,-0.30
2019-02-18T21:20:41.137Z,-0.40
2019-02-18T21:23:12.260Z,-0.50
2019-02-18T21:25:43.357Z,-0.50
2019-02-18T21:28:15.387Z,-0.60
2019-02-18T21:30:46.567Z,-0.60
2019-02-18T21:33:17.094Z,-0.50
2019-02-18T21:35:47.849Z,-0.50
2019-02-18T21:38:18.731Z,-0.60
2019-02-18T21:40:49.447Z,-0.50
2019-02-18T21:43:21.747Z,-0.50
2019-02-18T21:45:52.491Z,-0.50
2019-02-18T21:48:23.000Z,-0.40
2019-02-18T21:50:53.572Z,-0.50
2019-02-18T21:53:23.994Z,-0.50
2019-02-18T21:55:54.513Z,-0.40
2019-02-18T21:58:25.891Z,-0.50
2019-02-18T22:00:57.304Z,-0.60
2019-02-18T22:03:29.081Z,-0.60
2019-02-18T22:05:59.559Z,-0.70
2019-02-18T22:08:30.062Z,-0.60
2019-02-18T22:11:01.363Z,-0.50
2019-02-18T22:13:31.867Z,-0.40
2019-02-18T22:16:02.692Z,-0.30
2019-02-18T22:18:40.744Z,-0.40
2019-02-18T22:21:12.951Z,-0.40
2019-02-18T22:23:43.992Z,-0.50
2019-02-18T22:26:14.483Z,-0.50
2019-02-18T22:28:44.995Z,-0.60
2019-02-18T22:31:16.746Z,-0.60
2019-02-18T22:33:47.239Z,-0.60
2019-02-18T22:36:18.624Z,-0.70
2019-02-18T22:38:49.146Z,-0.70
2019-02-18T22:41:21.485Z,-0.60
2019-02-18T22:43:51.981Z,-0.60
2019-02-18T22:46:26.542Z,-0.70
2019-02-18T22:49:03.586Z,-0.70
2019-02-18T22:51:34.220Z,-0.80
2019-02-18T22:54:04.739Z,-0.70
2019-02-18T22:56:35.200Z,-0.60
2019-02-18T22:59:05.719Z,-0.60
2019-02-18T23:01:36.932Z,-0.50
2019-02-18T23:04:07.952Z,-0.60
2019-02-18T23:06:38.586Z,-0.60
2019-02-18T23:09:10.961Z,-0.50
2019-02-18T23:11:41.583Z,-0.50
2019-02-18T23:14:12.116Z,-0.70
2019-02-18T23:16:42.659Z,-0.70
2019-02-18T23:19:13.402Z,-0.80
2019-02-18T23:21:44.190Z,-0.90
2019-02-18T23:24:16.358Z,-1.00
2019-02-18T23:26:46.946Z,-1.00
2019-02-18T23:29:20.646Z,-1.10
2019-02-18T23:31:54.212Z,-1.10
2019-02-18T23:34:25.338Z,-1.10
2019-02-18T23:36:55.921Z,-1.00
2019-02-18T23:39:26.503Z,-1.10
2019-02-18T23:41:57.023Z,-1.10
2019-02-18T23:44:27.489Z,-1.30
2019-02-18T23:46:58.121Z,-1.30
2019-02-18T23:49:28.616Z,-1.40
2019-02-18T23:51:59.128Z,-1.40
2019-02-18T23:54:29.610Z,-1.50
2019-02-18T23:57:00.074Z,-1.50
2019-02-18T23:59:30.562Z,-1.50
